Time;durP1;ratioP1;P1;durP2;ratioP2;P2;SDS_P1;SDS_P2;PMS_P1;PMS_P2;Temp;Humidity;BMP_temperature;BMP_pressure;BME280_temperature;BME280_humidity;BME280_pressure;Samples;Min_cycle;Max_cycle;Signal;HPM_P1;HPM_P2
2023/10/02 00:01:18;;;;;;;5.80;5.70;;;14.50;99.90;;;;;;5011917;28;20508;-66
2023/10/02 00:03:48;;;;;;;5.90;5.80;;;14.40;99.90;;;;;;5013657;28;20526;-66
2023/10/02 00:06:16;;;;;;;5.50;5.40;;;14.40;99.90;;;;;;5029192;28;20461;-66
2023/10/02 00:08:51;;;;;;;5.30;5.20;;;14.30;99.90;;;;;;5017282;28;20465;-66
2023/10/02 00:11:39;;;;;;;5.30;5.20;;;14.30;99.90;;;;;;5025903;28;20464;-65
2023/10/02 00:14:19;;;;;;;5.17;5.10;;;14.30;99.90;;;;;;5014587;28;20565;-66
2023/10/02 00:16:59;;;;;;;4.83;4.83;;;14.30;99.90;;;;;;5025287;28;20466;-65
2023/10/02 00:19:31;;;;;;;4.87;4.87;;;14.20;99.90;;;;;;5021624;28;20968;-67
2023/10/02 00:21:59;;;;;;;5.27;5.17;;;14.20;99.90;;;;;;5031426;28;20853;-67
2023/10/02 00:24:28;;;;;;;4.80;4.80;;;14.10;99.90;;;;;;5019989;28;20949;-65
2023/10/02 00:26:57;;;;;;;5.47;5.37;;;14.10;99.90;;;;;;5025912;28;20495;-67
2023/10/02 00:29:25;;;;;;;5.57;5.47;;;14.10;99.90;;;;;;5028116;28;20451;-66
2023/10/02 00:31:52;;;;;;;5.43;5.33;;;14.10;99.90;;;;;;5022925;28;20633;-68
2023/10/02 00:34:30;;;;;;;5.20;5.13;;;14.10;99.90;;;;;;5025179;28;20453;-67
2023/10/02 00:37:01;;;;;;;4.83;4.83;;;14.10;99.90;;;;;;5020465;28;20520;-66
2023/10/02 00:39:33;;;;;;;4.80;4.80;;;14.00;99.90;;;;;;5023685;28;20526;-66
2023/10/02 00:45:02;;;;;;;5.50;5.40;;;13.90;99.90;;;;;;4957195;28;20588;-66
2023/10/02 00:47:38;;;;;;;5.50;5.40;;;13.90;99.90;;;;;;4962807;28;20771;-66
2023/10/02 00:50:20;;;;;;;5.07;4.97;;;13.90;99.90;;;;;;4986308;28;20477;-66
2023/10/02 00:52:55;;;;;;;5.67;5.57;;;13.90;99.90;;;;;;5021565;28;20473;-66
2023/10/02 00:55:25;;;;;;;5.23;5.13;;;13.80;99.90;;;;;;5025396;28;20535;-65
2023/10/02 00:57:52;;;;;;;5.43;5.33;;;13.80;99.90;;;;;;5024711;28;20460;-66
2023/10/02 01:00:21;;;;;;;5.33;5.23;;;13.80;99.90;;;;;;5025578;28;20462;-66
2023/10/02 01:02:50;;;;;;;5.90;5.80;;;13.80;99.90;;;;;;5019210;28;20499;-67
2023/10/02 01:05:21;;;;;;;5.60;5.50;;;13.80;99.90;;;;;;5021071;28;20798;-68
2023/10/02 01:07:53;;;;;;;5.30;5.20;;;13.80;99.90;;;;;;5025044;28;20460;-67
2023/10/02 01:10:20;;;;;;;5.93;5.83;;;13.80;99.90;;;;;;5025519;28;20503;-66
2023/10/02 01:12:50;;;;;;;5.70;5.60;;;13.80;99.90;;;;;;5028750;28;20854;-67
2023/10/02 01:15:26;;;;;;;5.67;5.57;;;13.80;99.90;;;;;;5020714;28;20457;-67
2023/10/02 01:17:54;;;;;;;5.90;5.80;;;13.80;99.90;;;;;;5023950;28;20520;-67
2023/10/02 01:20:35;;;;;;;5.80;5.70;;;13.80;99.90;;;;;;5022079;28;20988;-66
2023/10/02 01:23:17;;;;;;;5.60;5.50;;;13.80;99.90;;;;;;5019374;28;20493;-66
2023/10/02 01:25:47;;;;;;;6.20;6.10;;;13.80;99.90;;;;;;5025924;28;20461;-67
2023/10/02 01:28:15;;;;;;;5.40;5.30;;;13.80;99.90;;;;;;5013240;28;21108;-66
2023/10/02 01:30:44;;;;;;;5.00;5.00;;;13.80;99.90;;;;;;5020766;28;20453;-67
2023/10/02 01:33:12;;;;;;;5.63;5.53;;;13.80;99.90;;;;;;5028223;28;20716;-68
2023/10/02 01:35:40;;;;;;;5.53;5.43;;;13.80;99.90;;;;;;5028202;28;20461;-67
2023/10/02 01:38:14;;;;;;;5.70;5.60;;;13.80;99.90;;;;;;5023202;28;20954;-67
2023/10/02 01:40:48;;;;;;;6.10;6.00;;;13.80;99.90;;;;;;5016390;28;20466;-67
2023/10/02 01:43:16;;;;;;;5.83;5.73;;;13.90;99.90;;;;;;5024900;28;20598;-66
2023/10/02 01:45:45;;;;;;;5.47;5.37;;;14.00;99.90;;;;;;5024913;28;20461;-67
2023/10/02 01:48:15;;;;;;;5.70;5.60;;;14.00;99.90;;;;;;5027502;28;20456;-67
2023/10/02 01:50:43;;;;;;;4.97;4.97;;;14.00;99.90;;;;;;5020791;28;20457;-68
2023/10/02 01:53:28;;;;;;;4.90;4.90;;;14.00;99.90;;;;;;5017220;28;20550;-67
2023/10/02 01:56:11;;;;;;;4.50;4.50;;;14.00;99.90;;;;;;5016431;28;20457;-67
2023/10/02 01:58:39;;;;;;;4.80;4.80;;;14.00;99.90;;;;;;5027428;28;20471;-69
2023/10/02 02:01:06;;;;;;;5.00;5.00;;;14.00;99.90;;;;;;5027904;28;20452;-68
2023/10/02 02:03:33;;;;;;;4.70;4.70;;;14.10;99.90;;;;;;5022302;28;20497;-67
2023/10/02 02:06:08;;;;;;;4.80;4.80;;;14.10;99.90;;;;;;5024435;28;20546;-66
2023/10/02 02:08:35;;;;;;;5.03;5.03;;;14.10;99.90;;;;;;5022919;28;20468;-67
2023/10/02 02:11:16;;;;;;;5.00;5.00;;;14.10;99.90;;;;;;5018330;28;20552;-67
2023/10/02 02:13:45;;;;;;;6.00;5.90;;;14.20;99.90;;;;;;5014387;28;20482;-68
2023/10/02 02:16:15;;;;;;;4.80;4.80;;;14.20;99.90;;;;;;5021365;28;20515;-67
2023/10/02 02:18:43;;;;;;;4.50;4.50;;;14.20;99.90;;;;;;5027049;28;20540;-66
2023/10/02 02:21:15;;;;;;;4.77;4.77;;;14.20;99.90;;;;;;5017496;28;20535;-67
2023/10/02 02:23:42;;;;;;;5.60;5.50;;;14.10;99.90;;;;;;5019950;28;20580;-66
2023/10/02 02:26:11;;;;;;;5.57;5.47;;;14.10;99.90;;;;;;5028050;28;20579;-66
2023/10/02 02:28:43;;;;;;;5.47;5.37;;;14.10;99.90;;;;;;5021825;28;20542;-66
2023/10/02 02:31:29;;;;;;;5.20;5.10;;;14.20;99.90;;;;;;5013826;28;20461;-67
2023/10/02 02:33:57;;;;;;;5.40;5.30;;;14.20;99.90;;;;;;5026851;28;20464;-69
2023/10/02 02:36:25;;;;;;;5.10;5.00;;;14.20;99.90;;;;;;5025631;28;20502;-67
2023/10/02 02:39:07;;;;;;;5.30;5.20;;;14.20;99.90;;;;;;5019916;28;20492;-68
2023/10/02 02:41:37;;;;;;;4.90;4.90;;;14.10;99.90;;;;;;5024102;28;20471;-68
2023/10/02 02:44:06;;;;;;;5.60;5.50;;;14.10;99.90;;;;;;5027864;28;20492;-66
2023/10/02 02:46:32;;;;;;;5.60;5.50;;;14.10;99.90;;;;;;5023781;28;20469;-67
2023/10/02 02:49:00;;;;;;;5.27;5.17;;;14.00;99.90;;;;;;5027293;28;20473;-67
2023/10/02 02:51:27;;;;;;;5.33;5.23;;;14.00;99.90;;;;;;5025551;28;20582;-66
2023/10/02 02:53:55;;;;;;;5.77;5.67;;;14.00;99.90;;;;;;5023131;28;20452;-67
2023/10/02 02:56:23;;;;;;;5.60;5.50;;;13.90;99.90;;;;;;5031117;28;20963;-67
2023/10/02 02:58:55;;;;;;;5.83;5.73;;;14.00;99.90;;;;;;5027458;28;20471;-68
2023/10/02 03:01:23;;;;;;;5.50;5.40;;;13.90;99.90;;;;;;5018439;28;20457;-66
2023/10/02 03:03:50;;;;;;;5.57;5.47;;;13.90;99.90;;;;;;5027974;28;20492;-66
2023/10/02 03:06:22;;;;;;;5.93;5.83;;;13.90;99.90;;;;;;5022822;28;20963;-67
2023/10/02 03:08:51;;;;;;;5.70;5.60;;;13.90;99.90;;;;;;5023616;28;20461;-67
2023/10/02 03:11:19;;;;;;;5.80;5.70;;;14.00;99.90;;;;;;5023832;28;20464;-69
2023/10/02 03:13:47;;;;;;;6.37;6.27;;;14.00;99.90;;;;;;5016358;28;20465;-69
2023/10/02 03:16:18;;;;;;;6.30;6.20;;;14.00;99.90;;;;;;5025006;28;20462;-68
2023/10/02 03:18:48;;;;;;;5.50;5.40;;;14.00;99.90;;;;;;5026302;28;20481;-67
2023/10/02 03:21:23;;;;;;;6.10;6.00;;;14.00;99.90;;;;;;5030213;28;20479;-69
2023/10/02 03:23:53;;;;;;;6.07;5.97;;;14.00;99.90;;;;;;5023543;28;20496;-67
2023/10/02 03:29:04;;;;;;;6.17;6.07;;;14.00;99.90;;;;;;5021708;28;20468;-66
2023/10/02 03:31:43;;;;;;;5.97;5.87;;;13.90;99.90;;;;;;5025314;28;20904;-67
2023/10/02 03:34:29;;;;;;;5.87;5.77;;;13.90;99.90;;;;;;5025449;28;20495;-66
2023/10/02 03:36:59;;;;;;;6.00;5.90;;;13.90;99.90;;;;;;5024274;28;20513;-67
2023/10/02 03:42:14;;;;;;;6.20;6.10;;;13.90;99.90;;;;;;5018855;28;21422;-67
2023/10/02 03:44:42;;;;;;;6.43;6.33;;;13.90;99.90;;;;;;5027512;28;20477;-66
2023/10/02 03:47:13;;;;;;;6.77;6.67;;;13.90;99.90;;;;;;5019429;28;20473;-65
2023/10/02 03:49:42;;;;;;;5.93;5.83;;;13.90;99.90;;;;;;5026222;28;20964;-68
2023/10/02 03:52:13;;;;;;;6.10;6.00;;;13.90;99.90;;;;;;5023479;28;20592;-67
2023/10/02 03:54:43;;;;;;;6.97;6.87;;;13.90;99.90;;;;;;5025184;28;20461;-66
2023/10/02 03:57:37;;;;;;;6.90;6.80;;;13.90;99.90;;;;;;5025833;28;20551;-66
2023/10/02 04:00:12;;;;;;;7.10;7.00;;;13.90;99.90;;;;;;5028747;28;21011;-67
2023/10/02 04:02:43;;;;;;;6.87;6.77;;;13.90;99.90;;;;;;5015863;28;20985;-69
2023/10/02 04:05:11;;;;;;;6.83;6.73;;;13.90;99.90;;;;;;5020719;28;20520;-67
2023/10/02 04:07:38;;;;;;;7.07;6.97;;;13.90;99.90;;;;;;5030015;28;20469;-68
2023/10/02 04:10:08;;;;;;;6.90;6.80;;;13.90;99.90;;;;;;5018576;28;20881;-67
2023/10/02 04:12:50;;;;;;;7.33;7.23;;;13.90;99.90;;;;;;5029680;28;20460;-67
2023/10/02 04:15:16;;;;;;;7.00;6.90;;;13.90;99.90;;;;;;5017108;28;20453;-69
2023/10/02 04:17:49;;;;;;;7.67;7.57;;;14.00;99.90;;;;;;5032056;28;20457;-67
2023/10/02 04:20:27;;;;;;;7.10;7.00;;;14.00;99.90;;;;;;5023050;28;20475;-67
2023/10/02 04:22:54;;;;;;;7.37;7.27;;;14.10;99.90;;;;;;5022526;28;20496;-68
2023/10/02 04:25:24;;;;;;;7.40;7.30;;;14.10;99.90;;;;;;5029633;28;20481;-67
2023/10/02 04:28:08;;;;;;;6.40;6.30;;;14.10;99.90;;;;;;5029774;28;20456;-67
2023/10/02 04:30:37;;;;;;;6.87;6.77;;;14.10;99.90;;;;;;5017824;28;20456;-68
2023/10/02 04:33:08;;;;;;;6.80;6.70;;;14.10;99.90;;;;;;5023311;28;20469;-67
2023/10/02 04:35:44;;;;;;;7.00;6.90;;;14.10;99.90;;;;;;5029199;28;20461;-67
2023/10/02 04:38:14;;;;;;;6.83;6.73;;;14.10;99.90;;;;;;5021897;28;20576;-67
2023/10/02 04:40:49;;;;;;;7.00;6.90;;;14.10;99.90;;;;;;5021873;28;20465;-68
2023/10/02 04:43:19;;;;;;;7.00;6.90;;;14.10;99.90;;;;;;5015591;28;20586;-67
2023/10/02 04:45:47;;;;;;;6.30;6.20;;;14.20;99.90;;;;;;5021049;28;20465;-70
2023/10/02 04:48:16;;;;;;;6.47;6.37;;;14.20;99.90;;;;;;5025836;28;21000;-67
2023/10/02 04:50:46;;;;;;;7.20;7.10;;;14.20;99.90;;;;;;5018762;28;20511;-69
2023/10/02 04:53:22;;;;;;;7.10;7.00;;;14.20;99.90;;;;;;5025848;28;20465;-69
2023/10/02 04:55:57;;;;;;;6.57;6.47;;;14.30;99.90;;;;;;5018083;28;20474;-67
2023/10/02 04:58:28;;;;;;;6.20;6.10;;;14.30;99.90;;;;;;5019877;28;21056;-67
2023/10/02 05:03:49;;;;;;;6.30;6.20;;;14.30;99.90;;;;;;5020522;28;20892;-67
2023/10/02 05:06:16;;;;;;;5.90;5.80;;;14.20;99.90;;;;;;5021380;28;20523;-69
2023/10/02 05:11:25;;;;;;;6.70;6.60;;;14.10;99.90;;;;;;5012595;28;21107;-67
2023/10/02 05:13:59;;;;;;;6.80;6.70;;;14.10;99.90;;;;;;5017326;28;21028;-69
2023/10/02 05:16:32;;;;;;;7.33;7.23;;;14.10;99.90;;;;;;5018994;28;20461;-67
2023/10/02 05:19:04;;;;;;;6.43;6.33;;;14.10;99.90;;;;;;5017928;28;20461;-67
2023/10/02 05:21:38;;;;;;;6.70;6.60;;;14.10;99.90;;;;;;5013513;28;20464;-67
2023/10/02 05:24:07;;;;;;;6.60;6.50;;;14.00;99.90;;;;;;5021308;28;20524;-67
2023/10/02 05:26:34;;;;;;;6.00;5.90;;;14.00;99.90;;;;;;5021574;28;20488;-67
2023/10/02 05:29:01;;;;;;;6.10;6.00;;;13.90;99.90;;;;;;5019983;28;20544;-68
2023/10/02 05:31:29;;;;;;;6.30;6.20;;;13.90;99.90;;;;;;5024454;28;20480;-67
2023/10/02 05:33:57;;;;;;;6.47;6.37;;;13.90;99.90;;;;;;5020628;28;20464;-67
2023/10/02 05:36:29;;;;;;;6.47;6.37;;;13.90;99.90;;;;;;5017076;28;20465;-67
2023/10/02 05:41:47;;;;;;;6.30;6.20;;;13.80;99.90;;;;;;5009334;28;20464;-66
2023/10/02 05:44:20;;;;;;;7.20;7.10;;;13.80;99.90;;;;;;5020988;28;20489;-67
2023/10/02 05:46:56;;;;;;;7.17;7.07;;;13.80;99.90;;;;;;5009402;28;20583;-68
2023/10/02 05:49:26;;;;;;;7.03;6.93;;;13.80;99.90;;;;;;5013444;28;20870;-69
2023/10/02 05:51:56;;;;;;;7.30;7.20;;;13.80;99.90;;;;;;5012742;28;20753;-67
2023/10/02 05:54:26;;;;;;;7.37;7.27;;;13.70;99.90;;;;;;5015574;28;20504;-69
2023/10/02 05:57:08;;;;;;;7.60;7.50;;;13.70;99.90;;;;;;5023513;28;20476;-67
2023/10/02 05:59:43;;;;;;;6.40;6.30;;;13.70;99.90;;;;;;5014222;28;20472;-67
2023/10/02 06:02:12;;;;;;;6.47;6.37;;;13.70;99.90;;;;;;5011040;28;20480;-68
2023/10/02 06:04:43;;;;;;;7.00;6.90;;;13.70;99.90;;;;;;5010117;28;20932;-67
2023/10/02 06:07:15;;;;;;;6.93;6.83;;;13.70;99.90;;;;;;5015319;28;20469;-67
2023/10/02 06:09:46;;;;;;;6.47;6.37;;;13.80;99.90;;;;;;5014413;28;20465;-67
2023/10/02 06:12:13;;;;;;;6.67;6.57;;;13.90;99.90;;;;;;5016192;28;20477;-67
2023/10/02 06:14:42;;;;;;;6.63;6.53;;;14.00;99.90;;;;;;5015670;28;20464;-67
2023/10/02 06:17:11;;;;;;;6.40;6.30;;;14.00;99.90;;;;;;5022229;28;20526;-68
2023/10/02 06:19:44;;;;;;;6.50;6.40;;;14.10;99.90;;;;;;5018295;28;20826;-67
2023/10/02 06:22:14;;;;;;;6.77;6.67;;;14.10;99.90;;;;;;5022935;28;20524;-66
2023/10/02 06:24:43;;;;;;;6.27;6.17;;;14.20;99.90;;;;;;5015556;28;20867;-67
2023/10/02 06:27:17;;;;;;;6.43;6.33;;;14.30;99.90;;;;;;5030202;28;20595;-67
2023/10/02 06:29:50;;;;;;;6.40;6.30;;;14.30;99.90;;;;;;5021776;28;20460;-68
2023/10/02 06:32:20;;;;;;;5.70;5.60;;;14.40;99.90;;;;;;5026534;28;20559;-67
2023/10/02 06:34:50;;;;;;;6.67;6.57;;;14.50;99.90;;;;;;5018962;28;20460;-67
2023/10/02 06:37:24;;;;;;;6.60;6.50;;;14.60;99.90;;;;;;5025552;28;20469;-68
2023/10/02 06:40:04;;;;;;;6.60;6.50;;;14.70;99.90;;;;;;5025276;28;20595;-69
2023/10/02 06:42:32;;;;;;;6.60;6.50;;;14.70;99.90;;;;;;5030983;28;20610;-68
2023/10/02 06:45:01;;;;;;;6.60;6.50;;;14.80;99.90;;;;;;5030921;28;20558;-69
2023/10/02 06:47:29;;;;;;;7.00;6.90;;;14.90;99.90;;;;;;5022142;28;20559;-67
2023/10/02 06:50:02;;;;;;;6.00;5.90;;;15.00;99.90;;;;;;5020847;28;20898;-70
2023/10/02 06:52:35;;;;;;;5.87;5.77;;;15.10;99.90;;;;;;5022133;28;20887;-68
2023/10/02 06:55:03;;;;;;;5.67;5.57;;;15.20;99.90;;;;;;5025362;28;20472;-68
2023/10/02 06:57:53;;;;;;;5.83;5.73;;;15.30;99.90;;;;;;5022333;28;20963;-67
2023/10/02 07:00:54;;;;;;;5.70;5.60;;;15.40;99.90;;;;;;5028256;28;20453;-67
2023/10/02 07:09:24;;;;;;;5.90;5.80;;;15.70;99.90;;;;;;5023306;28;20824;-70
2023/10/02 07:11:52;;;;;;;6.60;6.50;;;15.70;99.90;;;;;;5030656;28;20910;-67
2023/10/02 07:14:23;;;;;;;5.70;5.60;;;15.80;99.90;;;;;;5022358;28;20469;-67
2023/10/02 07:17:08;;;;;;;6.20;6.10;;;15.90;99.90;;;;;;5020615;28;20457;-66
2023/10/02 07:19:39;;;;;;;6.87;6.77;;;15.90;99.90;;;;;;5030029;28;20483;-68
2023/10/02 07:22:16;;;;;;;6.43;6.33;;;16.00;99.90;;;;;;5030443;28;20499;-67
2023/10/02 07:24:46;;;;;;;6.60;6.50;;;16.10;99.90;;;;;;5022725;28;20528;-66
2023/10/02 07:27:27;;;;;;;6.40;6.30;;;16.20;99.90;;;;;;5025534;28;20561;-67
2023/10/02 07:29:55;;;;;;;7.23;7.13;;;16.30;99.90;;;;;;5028580;28;21159;-67
2023/10/02 07:32:23;;;;;;;7.30;7.20;;;16.40;99.90;;;;;;5030417;28;20461;-66
2023/10/02 07:34:51;;;;;;;7.40;7.30;;;16.50;99.90;;;;;;5027655;28;20958;-69
2023/10/02 07:37:24;;;;;;;7.80;7.70;;;16.60;99.90;;;;;;5027346;28;20457;-69
2023/10/02 07:40:00;;;;;;;8.40;8.30;;;16.80;99.90;;;;;;5029377;28;20484;-66
2023/10/02 07:42:29;;;;;;;8.47;8.37;;;16.90;99.90;;;;;;5016298;28;20460;-68
2023/10/02 07:45:11;;;;;;;8.30;8.20;;;17.10;99.90;;;;;;5023449;28;20488;-69
2023/10/02 07:47:55;;;;;;;8.87;8.77;;;17.20;99.90;;;;;;5010694;28;20454;-69
2023/10/02 07:50:24;;;;;;;8.87;8.77;;;17.30;99.90;;;;;;5031957;28;20468;-67
2023/10/02 07:52:52;;;;;;;9.47;9.27;;;17.40;99.90;;;;;;5019155;28;20460;-66
2023/10/02 07:55:23;;;;;;;9.60;9.40;;;17.50;99.90;;;;;;5022773;28;20565;-67
2023/10/02 07:57:58;;;;;;;9.70;9.50;;;17.60;99.90;;;;;;5033186;28;20919;-69
2023/10/02 08:00:37;;;;;;;9.80;9.60;;;17.80;99.90;;;;;;5031042;28;20897;-67
2023/10/02 08:03:09;;;;;;;9.90;9.70;;;17.90;99.90;;;;;;5031535;28;20497;-68
2023/10/02 08:05:38;;;;;;;10.90;10.60;;;18.10;99.90;;;;;;5025060;28;20463;-67
2023/10/02 08:08:09;;;;;;;11.13;10.83;;;18.20;99.90;;;;;;5027765;28;20503;-69
2023/10/02 08:10:49;;;;;;;10.60;10.40;;;18.30;99.90;;;;;;5028943;28;20484;-67
2023/10/02 08:13:17;;;;;;;10.70;10.50;;;18.50;99.90;;;;;;5022236;28;20575;-66
2023/10/02 08:15:45;;;;;;;10.80;10.60;;;18.60;99.90;;;;;;5028263;28;20970;-68
2023/10/02 08:18:17;;;;;;;11.03;10.73;;;18.70;99.90;;;;;;5022886;28;20552;-68
2023/10/02 08:20:45;;;;;;;11.13;10.83;;;18.90;99.90;;;;;;5024342;28;20464;-67
2023/10/02 08:23:21;;;;;;;11.30;11.00;;;19.10;99.90;;;;;;5025527;28;20880;-66
2023/10/02 08:26:02;;;;;;;11.63;11.33;;;19.20;99.90;;;;;;5029818;28;20862;-68
2023/10/02 08:28:33;;;;;;;11.50;11.20;;;19.20;99.90;;;;;;5025749;28;20475;-67
2023/10/02 08:31:03;;;;;;;11.60;11.30;;;19.30;99.90;;;;;;5022546;28;20550;-68
2023/10/02 08:33:31;;;;;;;11.40;11.10;;;19.50;99.90;;;;;;5018531;28;20457;-66
2023/10/02 08:36:01;;;;;;;11.83;11.53;;;19.70;99.90;;;;;;5028785;28;20500;-67
2023/10/02 08:38:29;;;;;;;11.53;11.23;;;20.00;99.90;;;;;;5029980;28;20591;-66
2023/10/02 08:41:04;;;;;;;11.80;11.50;;;20.30;99.90;;;;;;5022585;28;20460;-67
2023/10/02 08:43:32;;;;;;;11.60;11.30;;;20.50;99.90;;;;;;5016288;28;21036;-66
2023/10/02 08:45:59;;;;;;;11.60;11.30;;;20.60;99.90;;;;;;5022218;28;20918;-67
2023/10/02 08:48:31;;;;;;;11.50;11.20;;;20.70;99.90;;;;;;5028506;28;20861;-66
2023/10/02 08:51:00;;;;;;;12.20;11.90;;;20.80;99.90;;;;;;5023427;28;20994;-66
2023/10/02 08:53:27;;;;;;;12.30;12.00;;;20.80;99.90;;;;;;5030277;28;20959;-68
2023/10/02 08:56:23;;;;;;;11.80;11.50;;;20.90;99.90;;;;;;5028609;28;20453;-70
2023/10/02 08:59:15;;;;;;;11.60;11.30;;;21.00;99.90;;;;;;5025465;28;20468;-67
2023/10/02 09:01:37;;;;;;;11.60;11.30;;;21.20;99.90;;;;;;5027655;28;20444;-68
2023/10/02 09:04:22;;;;;;;10.80;10.60;;;21.30;99.90;;;;;;5029130;28;20519;-68
2023/10/02 09:06:53;;;;;;;11.30;11.00;;;21.40;99.90;;;;;;5025018;28;20449;-67
2023/10/02 09:09:26;;;;;;;12.00;11.70;;;21.40;99.90;;;;;;5027369;28;20547;-67
2023/10/02 09:11:58;;;;;;;11.50;11.20;;;21.40;99.90;;;;;;5016618;28;20470;-68
2023/10/02 09:17:23;;;;;;;11.30;11.00;;;21.50;99.90;;;;;;5125785;27;20530;-67
2023/10/02 09:20:00;;;;;;;11.30;11.00;;;21.70;99.90;;;;;;5110485;28;20456;-67
2023/10/02 09:22:28;;;;;;;10.83;10.63;;;21.80;99.90;;;;;;5119053;27;20866;-67
2023/10/02 09:25:12;;;;;;;10.80;10.60;;;21.90;99.90;;;;;;5126023;28;20456;-68
2023/10/02 09:27:54;;;;;;;10.90;10.70;;;22.00;99.90;;;;;;5110687;28;20547;-67
2023/10/02 09:30:35;;;;;;;11.00;10.80;;;22.20;99.90;;;;;;5117938;27;20809;-67
2023/10/02 09:33:07;;;;;;;11.00;10.80;;;22.50;99.90;;;;;;5123824;27;20577;-67
2023/10/02 09:35:39;;;;;;;10.90;10.70;;;22.80;99.90;;;;;;5121140;27;20480;-68
2023/10/02 09:38:10;;;;;;;11.33;11.03;;;22.90;99.90;;;;;;5119543;27;20454;-69
2023/10/02 09:43:31;;;;;;;11.20;10.93;;;23.70;99.90;;;;;;5097652;28;20492;-69
2023/10/02 09:46:05;;;;;;;10.80;10.60;;;24.50;99.90;;;;;;5114374;27;20488;-68
2023/10/02 09:49:01;;;;;;;11.37;11.07;;;25.30;99.90;;;;;;5111068;27;20468;-67
2023/10/02 09:51:45;;;;;;;11.57;11.27;;;26.10;99.90;;;;;;5108791;28;20449;-69
2023/10/02 09:54:21;;;;;;;11.87;11.57;;;26.80;99.90;;;;;;5129077;27;20457;-69
2023/10/02 09:57:05;;;;;;;11.90;11.60;;;27.50;99.90;;;;;;5111219;27;20479;-67
2023/10/02 09:59:37;;;;;;;12.17;11.87;;;27.70;99.90;;;;;;5112945;27;20465;-68
2023/10/02 10:08:28;;;;;;;12.13;11.83;;;28.30;99.90;;;;;;5113175;28;20457;-68
2023/10/02 10:10:57;;;;;;;12.30;12.00;;;28.50;99.90;;;;;;5111616;27;20862;-70
2023/10/02 10:13:31;;;;;;;13.50;13.10;;;28.40;99.90;;;;;;5107746;27;20968;-67
2023/10/02 10:16:35;;;;;;;12.03;11.73;;;28.70;99.90;;;;;;5102801;28;20498;-69
2023/10/02 10:19:26;;;;;;;12.97;12.57;;;28.90;99.90;;;;;;5118941;28;20971;-67
2023/10/02 10:21:57;;;;;;;13.43;13.03;;;29.20;99.90;;;;;;5104583;28;20838;-67
2023/10/02 10:25:22;;;;;;;12.77;12.47;;;29.60;99.90;;;;;;5105619;28;20457;-67
2023/10/02 10:27:55;;;;;;;12.80;12.50;;;29.70;99.90;;;;;;5109205;27;20525;-66
2023/10/02 10:30:47;;;;;;;12.87;12.57;;;29.90;99.90;;;;;;5094404;28;20564;-67
2023/10/02 10:33:41;;;;;;;12.97;12.67;;;30.30;99.90;;;;;;5091009;27;20545;-66
2023/10/02 10:36:38;;;;;;;13.43;13.03;;;30.70;99.90;;;;;;5101465;27;20566;-68
2023/10/02 10:39:45;;;;;;;13.33;12.93;;;30.90;99.90;;;;;;5094546;28;20482;-65
2023/10/02 10:42:11;;;;;;;13.47;13.07;;;31.30;99.90;;;;;;5101796;27;20484;-67
2023/10/02 10:44:43;;;;;;;13.20;12.80;;;30.80;99.90;;;;;;5091935;28;20470;-66
2023/10/02 10:47:14;;;;;;;13.60;13.20;;;30.50;99.90;;;;;;5108718;28;20195;-66
2023/10/02 10:52:39;;;;;;;13.40;13.00;;;31.20;99.90;;;;;;5096964;28;20445;-66
2023/10/02 10:55:34;;;;;;;13.20;12.80;;;31.30;99.90;;;;;;5104539;28;20469;-66
2023/10/02 10:58:01;;;;;;;13.37;12.97;;;31.50;99.90;;;;;;5098480;28;20465;-68
2023/10/02 11:00:31;;;;;;;13.13;12.73;;;32.20;99.90;;;;;;5098766;27;20531;-66
2023/10/02 11:03:01;;;;;;;13.53;13.13;;;32.70;99.90;;;;;;5103133;27;20513;-67
2023/10/02 11:05:33;;;;;;;13.90;13.50;;;32.90;99.90;;;;;;5103476;27;20922;-66
2023/10/02 11:08:23;;;;;;;13.43;13.03;;;33.50;99.90;;;;;;5094280;28;20457;-67
2023/10/02 11:11:02;;;;;;;13.60;13.20;;;34.10;99.90;;;;;;5096754;28;20461;-65
2023/10/02 11:13:30;;;;;;;13.57;13.17;;;34.10;99.90;;;;;;5095364;28;21014;-67
2023/10/02 11:16:07;;;;;;;13.80;13.40;;;34.60;99.90;;;;;;5098106;28;20600;-66
2023/10/02 11:18:39;;;;;;;13.13;12.83;;;34.60;99.90;;;;;;5090539;27;20551;-65
2023/10/02 11:21:24;;;;;;;13.63;13.23;;;34.50;99.90;;;;;;5093763;27;20777;-66
2023/10/02 11:23:53;;;;;;;13.70;13.30;;;34.40;99.90;;;;;;5087418;28;20462;-66
2023/10/02 11:26:23;;;;;;;13.23;12.93;;;34.30;99.90;;;;;;5100277;28;20518;-67
2023/10/02 11:28:50;;;;;;;13.27;12.97;;;34.50;99.90;;;;;;5096574;28;20558;-65
2023/10/02 11:31:32;;;;;;;12.33;12.03;;;35.30;99.90;;;;;;5094196;28;20518;-66
2023/10/02 11:34:03;;;;;;;13.80;13.40;;;35.60;99.90;;;;;;5091310;28;21339;-67
2023/10/02 11:36:33;;;;;;;13.17;12.87;;;35.60;99.90;;;;;;5099388;28;20516;-67
2023/10/02 11:39:02;;;;;;;13.43;13.03;;;35.20;99.90;;;;;;5094794;28;20477;-67
2023/10/02 11:41:31;;;;;;;13.80;13.40;;;35.20;99.90;;;;;;5090548;28;20558;-67
2023/10/02 11:43:59;;;;;;;13.67;13.27;;;34.70;99.90;;;;;;5094123;28;20743;-66
2023/10/02 11:46:25;;;;;;;13.73;13.33;;;34.20;99.90;;;;;;5090573;28;20458;-66
2023/10/02 11:48:54;;;;;;;14.03;13.63;;;34.70;99.90;;;;;;5091168;28;21083;-66
2023/10/02 11:51:23;;;;;;;13.17;12.87;;;34.90;99.90;;;;;;5096720;28;20498;-66
2023/10/02 11:53:50;;;;;;;12.60;12.30;;;34.60;99.90;;;;;;5097488;28;20453;-67
2023/10/02 11:56:20;;;;;;;13.20;12.90;;;35.10;99.90;;;;;;5095875;28;20578;-66
2023/10/02 11:58:48;;;;;;;13.83;13.43;;;35.60;99.90;;;;;;5095651;28;20489;-67
2023/10/02 12:01:15;;;;;;;13.60;13.20;;;35.60;99.90;;;;;;5091485;28;20833;-67
2023/10/02 12:03:41;;;;;;;13.37;13.03;;;35.10;99.90;;;;;;5098348;28;20855;-67
2023/10/02 12:06:14;;;;;;;12.83;12.53;;;34.80;99.90;;;;;;5099171;28;20853;-67
2023/10/02 12:08:41;;;;;;;13.00;12.70;;;34.90;99.90;;;;;;5096675;28;20466;-66
2023/10/02 12:11:09;;;;;;;13.10;12.80;;;35.20;99.90;;;;;;5089545;28;20469;-66
2023/10/02 12:13:35;;;;;;;13.63;13.23;;;35.30;99.90;;;;;;5094203;28;20499;-67
2023/10/02 12:16:05;;;;;;;12.73;12.43;;;35.30;99.90;;;;;;5086923;28;20498;-67
2023/10/02 12:18:34;;;;;;;14.00;13.60;;;35.40;99.90;;;;;;5087949;28;20462;-66
2023/10/02 12:21:01;;;;;;;13.60;13.20;;;35.30;99.50;;;;;;5087862;28;20564;-66
2023/10/02 12:23:29;;;;;;;13.70;13.30;;;35.40;99.60;;;;;;5098078;28;20956;-66
2023/10/02 12:25:56;;;;;;;13.30;13.00;;;35.50;99.20;;;;;;5092553;28;20503;-67
2023/10/02 12:28:23;;;;;;;12.80;12.50;;;35.50;98.20;;;;;;5095592;28;20492;-67
2023/10/02 12:30:50;;;;;;;13.20;12.90;;;35.80;98.60;;;;;;5093087;28;20473;-66
2023/10/02 12:33:19;;;;;;;13.77;13.37;;;35.90;98.80;;;;;;5092071;28;20454;-67
2023/10/02 12:35:45;;;;;;;13.10;12.80;;;35.70;98.10;;;;;;5101640;28;20934;-67
2023/10/02 12:38:13;;;;;;;13.10;12.80;;;35.20;98.00;;;;;;5098269;28;20809;-67
2023/10/02 12:40:41;;;;;;;13.70;13.30;;;34.60;98.50;;;;;;5092720;28;20572;-66
2023/10/02 12:43:09;;;;;;;13.70;13.30;;;34.40;98.70;;;;;;5083467;28;20483;-66
2023/10/02 12:45:36;;;;;;;13.90;13.50;;;33.90;99.10;;;;;;5090478;28;20459;-67
2023/10/02 12:48:07;;;;;;;13.40;13.00;;;33.60;99.80;;;;;;5089015;28;20580;-67
2023/10/02 12:50:42;;;;;;;14.10;13.70;;;33.00;99.90;;;;;;5094545;28;20457;-67
2023/10/02 12:53:10;;;;;;;13.20;12.90;;;33.00;99.90;;;;;;5098292;28;20987;-66
2023/10/02 12:55:40;;;;;;;13.87;13.47;;;33.30;99.90;;;;;;5090764;28;20454;-67
2023/10/02 12:58:07;;;;;;;13.70;13.30;;;33.60;99.70;;;;;;5096042;28;20491;-66
2023/10/02 13:00:35;;;;;;;13.20;12.90;;;33.40;99.60;;;;;;5096653;28;20457;-67
2023/10/02 13:03:02;;;;;;;13.40;13.00;;;33.60;98.50;;;;;;5097133;28;20461;-68
2023/10/02 13:05:31;;;;;;;13.97;13.57;;;33.70;98.40;;;;;;5089418;28;21132;-67
2023/10/02 13:08:00;;;;;;;13.80;13.40;;;33.70;98.30;;;;;;5096782;28;20538;-66
2023/10/02 13:10:28;;;;;;;13.70;13.30;;;33.60;97.40;;;;;;5092877;28;20456;-67
2023/10/02 13:12:57;;;;;;;13.77;13.37;;;33.00;97.50;;;;;;5092100;28;20561;-67
2023/10/02 13:15:26;;;;;;;13.73;13.33;;;32.90;97.60;;;;;;5092958;28;20491;-67
2023/10/02 13:17:53;;;;;;;13.90;13.50;;;32.80;97.90;;;;;;5099463;28;20999;-67
2023/10/02 13:20:20;;;;;;;13.67;13.27;;;32.40;98.40;;;;;;5090073;28;20462;-66
2023/10/02 13:22:47;;;;;;;13.80;13.40;;;32.20;98.30;;;;;;5094579;28;20453;-68
2023/10/02 13:25:15;;;;;;;13.77;13.37;;;31.90;98.90;;;;;;5098211;28;20465;-67
2023/10/02 13:27:43;;;;;;;13.50;13.10;;;32.10;99.30;;;;;;5097898;28;20497;-67
2023/10/02 13:30:12;;;;;;;13.27;12.97;;;31.70;99.50;;;;;;5089136;28;20458;-66
2023/10/02 13:32:40;;;;;;;13.37;13.07;;;31.70;99.90;;;;;;5099024;28;20518;-67
2023/10/02 13:35:09;;;;;;;14.00;13.60;;;31.60;99.90;;;;;;5096865;28;20477;-67
2023/10/02 13:37:36;;;;;;;13.83;13.43;;;31.80;99.90;;;;;;5091331;28;20489;-67
2023/10/02 13:40:28;;;;;;;13.67;13.27;;;31.70;99.90;;;;;;5093639;28;20921;-66
2023/10/02 13:42:58;;;;;;;14.00;13.60;;;31.40;99.90;;;;;;5097432;28;20472;-67